createdAt,value
2022-09-28T00:01:44.658Z,98854.13
2022-09-28T00:04:12.135Z,98855.06
2022-09-28T00:06:39.472Z,98864.44
2022-09-28T00:09:06.567Z,98854.84
2022-09-28T00:11:33.262Z,98860.91
2022-09-28T00:14:03.480Z,98838.28
2022-09-28T00:16:33.247Z,98844.25
2022-09-28T00:19:00.805Z,98840.13
2022-09-28T00:21:30.101Z,98834.81
2022-09-28T00:24:18.891Z,98833.19
2022-09-28T00:26:51.164Z,98825.47
2022-09-28T00:29:26.527Z,98830.56
2022-09-28T00:31:59.769Z,98820.34
2022-09-28T00:34:27.356Z,98820.34
2022-09-28T00:36:53.909Z,98813.28
2022-09-28T00:39:21.431Z,98813.19
2022-09-28T00:41:49.453Z,98813.44
2022-09-28T00:44:31.922Z,98818.63
2022-09-28T00:47:05.832Z,98822.25
2022-09-28T00:49:38.603Z,98822.22
2022-09-28T00:52:08.223Z,98822.97
2022-09-28T00:54:35.128Z,98812.56
2022-09-28T00:57:03.418Z,98800.44
2022-09-28T00:59:32.432Z,98808.22
2022-09-28T01:01:59.219Z,98812.44
2022-09-28T01:04:29.753Z,98795.13
2022-09-28T01:06:59.027Z,98801.19
2022-09-28T01:09:27.598Z,98800.28
2022-09-28T01:11:55.171Z,98797.69
2022-09-28T01:14:25.594Z,98803.63
2022-09-28T01:16:55.140Z,98802.75
2022-09-28T01:19:45.739Z,98802.75
2022-09-28T01:22:34.485Z,98794.91
2022-09-28T01:25:16.617Z,98793.97
2022-09-28T01:27:52.086Z,98788.84
2022-09-28T01:30:21.186Z,98792.31
2022-09-28T01:32:57.590Z,98802.59
2022-09-28T01:35:27.212Z,98790.47
2022-09-28T01:38:00.591Z,98804.34
2022-09-28T01:40:30.306Z,98794.03
2022-09-28T01:43:03.321Z,98799.22
2022-09-28T01:45:38.424Z,98796.66
2022-09-28T01:48:07.767Z,98797.56
2022-09-28T01:50:39.686Z,98794.91
2022-09-28T01:53:15.788Z,98787.91
2022-09-28T01:55:50.858Z,98792.19
2022-09-28T01:58:26.978Z,98789.75
2022-09-28T02:01:00.410Z,98771.69
2022-09-28T02:03:40.726Z,98789.06
2022-09-28T02:06:38.828Z,98783.00
2022-09-28T02:09:12.558Z,98781.28
2022-09-28T02:11:48.844Z,98783.84
2022-09-28T02:14:18.100Z,98776.09
2022-09-28T02:16:54.268Z,98783.91
2022-09-28T02:19:28.449Z,98772.66
2022-09-28T02:21:59.040Z,98775.25
2022-09-28T02:24:37.571Z,98773.50
2022-09-28T02:27:14.826Z,98776.13
2022-09-28T02:29:41.770Z,98766.69
2022-09-28T02:32:08.420Z,98775.22
2022-09-28T02:34:35.551Z,98767.44
2022-09-28T02:37:02.853Z,98780.38
2022-09-28T02:39:29.512Z,98778.59
2022-09-28T02:42:25.661Z,98769.16
2022-09-28T02:45:14.271Z,98787.34
2022-09-28T02:48:27.173Z,98783.25
2022-09-28T02:51:10.228Z,98780.75
2022-09-28T02:53:39.834Z,98784.28
2022-09-28T02:56:25.172Z,98793.84
2022-09-28T02:59:23.828Z,98784.50
2022-09-28T03:02:20.190Z,98789.59
2022-09-28T03:05:11.953Z,98794.75
2022-09-28T03:08:01.009Z,98793.88
2022-09-28T03:10:49.486Z,98792.22
2022-09-28T03:13:17.758Z,98796.59
2022-09-28T03:15:48.534Z,98798.28
2022-09-28T03:18:17.547Z,98792.16
2022-09-28T03:20:44.856Z,98788.09
2022-09-28T03:23:26.877Z,98777.69
2022-09-28T03:25:53.768Z,98786.22
2022-09-28T03:28:21.446Z,98786.22
2022-09-28T03:30:49.131Z,98793.00
2022-09-28T03:33:16.028Z,98792.13
2022-09-28T03:35:46.812Z,98777.50
2022-09-28T03:38:13.757Z,98776.56
2022-09-28T03:40:42.791Z,98774.94
2022-09-28T03:43:09.580Z,98784.41
2022-09-28T03:45:36.439Z,98781.84
2022-09-28T03:48:03.062Z,98768.94
2022-09-28T03:50:29.912Z,98778.38
2022-09-28T03:53:02.229Z,98772.25
2022-09-28T03:55:28.801Z,98765.50
2022-09-28T03:57:58.220Z,98776.69
2022-09-28T04:00:24.790Z,98766.25
2022-09-28T04:02:51.412Z,98779.91
2022-09-28T04:05:18.173Z,98780.88
2022-09-28T04:07:44.762Z,98787.66
2022-09-28T04:10:11.540Z,98765.34
2022-09-28T04:12:39.161Z,98774.78
2022-09-28T04:15:06.725Z,98795.44
2022-09-28T04:17:39.220Z,98770.53
2022-09-28T04:20:09.579Z,98780.84
2022-09-28T04:22:55.228Z,98782.53
2022-09-28T04:25:21.874Z,98780.88
2022-09-28T04:28:07.749Z,98788.59
2022-09-28T04:30:36.223Z,98786.94
2022-09-28T04:33:03.241Z,98783.47
2022-09-28T04:35:30.512Z,98782.75
2022-09-28T04:37:57.112Z,98784.47
2022-09-28T04:40:24.014Z,98785.44
2022-09-28T04:42:56.069Z,98787.03
2022-09-28T04:45:26.099Z,98797.44
2022-09-28T04:47:54.796Z,98767.38
2022-09-28T04:50:41.394Z,98781.16
2022-09-28T04:53:20.261Z,98785.50
2022-09-28T04:55:58.140Z,98790.66
2022-09-28T04:58:25.383Z,98762.25
2022-09-28T05:00:54.314Z,98785.50
2022-09-28T05:03:42.021Z,98782.84
2022-09-28T05:06:22.709Z,98773.41
2022-09-28T05:08:57.304Z,98794.78
2022-09-28T05:11:24.094Z,98780.19
2022-09-28T05:13:50.840Z,98793.25
2022-09-28T05:16:20.430Z,98803.38
2022-09-28T05:19:07.024Z,98805.97
2022-09-28T05:21:33.980Z,98794.84
2022-09-28T05:24:00.839Z,98809.41
2022-09-28T05:26:27.481Z,98806.81
2022-09-28T05:28:54.101Z,98804.25
2022-09-28T05:31:39.476Z,98805.97
2022-09-28T05:34:21.224Z,98811.09
2022-09-28T05:36:48.263Z,98815.28
2022-09-28T05:39:14.843Z,98801.50
2022-09-28T05:41:41.434Z,98807.63
2022-09-28T05:44:08.301Z,98800.00
2022-09-28T05:46:35.945Z,98803.25
2022-09-28T05:49:02.745Z,98804.06
2022-09-28T05:51:29.455Z,98802.19
2022-09-28T05:54:04.609Z,98800.41
2022-09-28T05:56:33.000Z,98808.25
2022-09-28T05:59:01.688Z,98796.16
2022-09-28T06:01:29.324Z,98805.84
2022-09-28T06:03:58.005Z,98812.72
2022-09-28T06:06:25.242Z,98810.84
2022-09-28T06:08:52.125Z,98809.25
2022-09-28T06:11:27.797Z,98809.13
2022-09-28T06:13:56.909Z,98809.97
2022-09-28T06:16:26.641Z,98815.28
2022-09-28T06:18:53.387Z,98809.19
2022-09-28T06:21:38.479Z,98811.69
2022-09-28T06:24:06.634Z,98817.72
2022-09-28T06:26:33.376Z,98806.47
2022-09-28T06:29:00.597Z,98816.00
2022-09-28T06:31:30.032Z,98821.16
2022-09-28T06:33:57.202Z,98828.22
2022-09-28T06:36:23.816Z,98823.94
2022-09-28T06:38:50.557Z,98832.50
2022-09-28T06:41:17.297Z,98829.16
2022-09-28T06:43:46.411Z,98835.06
2022-09-28T06:46:14.155Z,98835.81
2022-09-28T06:48:50.122Z,98841.06
2022-09-28T06:51:48.879Z,98839.22
2022-09-28T06:54:25.552Z,98845.31
2022-09-28T06:57:21.119Z,98847.81
2022-09-28T06:59:47.790Z,98844.44
2022-09-28T07:02:14.920Z,98853.13
2022-09-28T07:05:16.877Z,98842.72
2022-09-28T07:07:58.786Z,98847.94
2022-09-28T07:10:49.444Z,98850.47
2022-09-28T07:16:15.332Z,98857.22
2022-09-28T07:18:42.285Z,98857.19
2022-09-28T07:21:14.115Z,98860.59
2022-09-28T07:23:53.192Z,98866.63
2022-09-28T07:26:24.749Z,98872.56
2022-09-28T07:29:10.921Z,98877.19
2022-09-28T07:31:43.667Z,98875.28
2022-09-28T07:34:43.560Z,98870.13
2022-09-28T07:37:18.945Z,98879.66
2022-09-28T07:40:05.165Z,98874.44
2022-09-28T07:42:34.688Z,98884.66
2022-09-28T07:45:01.403Z,98882.34
2022-09-28T07:47:33.856Z,98888.25
2022-09-28T07:50:27.845Z,98882.97
2022-09-28T07:53:12.779Z,98891.63
2022-09-28T07:56:05.634Z,98888.75
2022-09-28T07:58:48.608Z,98898.91
2022-09-28T08:01:44.429Z,98900.56
2022-09-28T08:04:13.774Z,98902.47
2022-09-28T08:06:42.466Z,98897.13
2022-09-28T08:09:11.160Z,98910.13
2022-09-28T08:12:07.755Z,98906.72
2022-09-28T08:14:34.437Z,98909.19
2022-09-28T08:17:19.596Z,98910.06
2022-09-28T08:20:08.684Z,98909.22
2022-09-28T08:22:35.341Z,98910.78
2022-09-28T08:25:02.132Z,98916.72
2022-09-28T08:27:29.387Z,98931.56
2022-09-28T08:29:55.967Z,98926.19
2022-09-28T08:32:51.802Z,98928.75
2022-09-28T08:35:37.060Z,98925.16
2022-09-28T08:38:14.588Z,98932.94
2022-09-28T08:41:05.780Z,98938.19
2022-09-28T08:44:23.686Z,98939.78
2022-09-28T08:47:41.113Z,98940.41
2022-09-28T08:50:26.885Z,98942.03
2022-09-28T08:53:51.188Z,98944.00
2022-09-28T08:56:35.878Z,98944.91
2022-09-28T08:59:05.423Z,98941.31
2022-09-28T09:01:35.016Z,98951.81
2022-09-28T09:04:07.039Z,98953.25
2022-09-28T09:07:19.216Z,98957.91
2022-09-28T09:10:03.319Z,98960.69
2022-09-28T09:12:48.351Z,98962.41
2022-09-28T09:15:26.708Z,98965.03
2022-09-28T09:17:56.393Z,98970.91
2022-09-28T09:20:35.239Z,98963.84
2022-09-28T09:23:24.288Z,98964.38
2022-09-28T09:25:54.883Z,98971.47
2022-09-28T09:28:38.351Z,98973.34
2022-09-28T09:31:11.634Z,98973.13
2022-09-28T09:34:02.229Z,98973.31
2022-09-28T09:37:06.447Z,98971.28
2022-09-28T09:40:27.369Z,98980.66
2022-09-28T09:43:29.340Z,98987.78
2022-09-28T09:46:11.826Z,98982.31
2022-09-28T09:49:01.192Z,98981.50
2022-09-28T09:51:40.229Z,98980.38
2022-09-28T09:54:13.681Z,98989.34
2022-09-28T09:56:58.401Z,98986.47
2022-09-28T09:59:48.658Z,98985.63
2022-09-28T10:02:35.635Z,98986.28
2022-09-28T10:05:27.673Z,98989.00
2022-09-28T10:08:03.020Z,98993.41
2022-09-28T10:10:35.223Z,98997.94
2022-09-28T10:13:10.913Z,99003.13
2022-09-28T10:15:41.323Z,98995.41
2022-09-28T10:18:15.972Z,99002.19
2022-09-28T10:21:01.336Z,98998.78
2022-09-28T10:23:42.520Z,99003.88
2022-09-28T10:26:25.062Z,98999.41
2022-09-28T10:29:19.717Z,99006.84
2022-09-28T10:31:51.728Z,99009.63
2022-09-28T10:34:31.059Z,99006.94
2022-09-28T10:37:09.480Z,99006.91
2022-09-28T10:40:02.250Z,99004.28
2022-09-28T10:42:34.900Z,99013.72
2022-09-28T10:45:15.585Z,99012.56
2022-09-28T10:47:44.800Z,99014.16
2022-09-28T10:50:35.047Z,99020.94
2022-09-28T10:53:22.774Z,99014.03
2022-09-28T10:56:26.824Z,99015.91
2022-09-28T10:59:00.573Z,99006.53
2022-09-28T11:01:45.790Z,99015.31
2022-09-28T11:04:21.809Z,99016.06
2022-09-28T11:06:48.565Z,99018.56
2022-09-28T11:09:45.188Z,99015.97
2022-09-28T11:12:39.598Z,99022.88
2022-09-28T11:15:07.711Z,99025.41
2022-09-28T11:17:38.839Z,99023.84
2022-09-28T11:20:27.865Z,99018.09
2022-09-28T11:23:18.245Z,99011.13
2022-09-28T11:25:57.399Z,99020.47
2022-09-28T11:28:32.742Z,99014.31
2022-09-28T11:31:02.942Z,99023.69
2022-09-28T11:33:38.805Z,99016.63
2022-09-28T11:36:50.227Z,99019.16
2022-09-28T11:39:29.088Z,99027.81
2022-09-28T11:42:12.961Z,99028.47
2022-09-28T11:44:46.973Z,99030.13
2022-09-28T11:47:39.726Z,99033.66
2022-09-28T11:50:25.711Z,99032.50
2022-09-28T11:53:11.186Z,99028.88
2022-09-28T11:55:51.893Z,99030.66
2022-09-28T11:58:26.276Z,99035.84
2022-09-28T12:01:08.701Z,99041.88
2022-09-28T12:04:04.007Z,99043.13
2022-09-28T12:07:17.084Z,99029.66
2022-09-28T12:10:15.799Z,99046.16
2022-09-28T12:13:00.183Z,99051.88
2022-09-28T12:16:11.642Z,99022.69
2022-09-28T12:19:12.615Z,99023.97
2022-09-28T12:22:06.559Z,99043.38
2022-09-28T12:24:38.549Z,99030.06
2022-09-28T12:27:52.501Z,99052.97
2022-09-28T12:30:30.830Z,99035.38
2022-09-28T12:33:15.219Z,99062.28
2022-09-28T12:39:57.449Z,99056.69
2022-09-28T12:43:22.098Z,99055.38
2022-09-28T12:46:30.145Z,99048.59
2022-09-28T12:50:07.255Z,99052.81
2022-09-28T12:52:35.080Z,99053.78
2022-09-28T12:55:23.117Z,99050.16
2022-09-28T12:58:03.709Z,99053.63
2022-09-28T13:00:56.543Z,99035.41
2022-09-28T13:03:54.683Z,99049.03
2022-09-28T13:06:46.943Z,99019.53
2022-09-28T13:13:16.191Z,99054.94
2022-09-28T13:16:29.170Z,99049.81
2022-09-28T13:22:50.765Z,99051.84
2022-09-28T13:31:40.125Z,99023.66
2022-09-28T13:34:32.432Z,99048.19
2022-09-28T13:37:22.948Z,99051.72
2022-09-28T13:40:09.202Z,99016.97
2022-09-28T13:43:06.886Z,99048.97
2022-09-28T13:46:05.981Z,99061.19
2022-09-28T13:49:25.645Z,99059.19
2022-09-28T13:52:37.151Z,99047.56
2022-09-28T13:56:08.924Z,99070.13
2022-09-28T14:02:20.161Z,99066.75
2022-09-28T14:12:52.968Z,99050.44
2022-09-28T14:16:30.001Z,98999.47
2022-09-28T14:20:36.682Z,99008.78
2022-09-28T14:23:13.911Z,99061.81
2022-09-28T14:30:14.811Z,99028.69
2022-09-28T14:33:20.176Z,99071.25
2022-09-28T14:36:05.245Z,99001.66
2022-09-28T14:39:43.798Z,99025.34
2022-09-28T14:45:43.135Z,99062.34
2022-09-28T14:49:14.271Z,99033.75
2022-09-28T14:51:57.081Z,99068.53
2022-09-28T14:55:27.511Z,99039.84
2022-09-28T14:58:23.366Z,99068.25
2022-09-28T15:01:27.940Z,99073.19
2022-09-28T15:04:25.625Z,99036.53
2022-09-28T15:07:47.809Z,99037.94
2022-09-28T15:10:45.124Z,99061.19
2022-09-28T15:13:48.935Z,99039.78
2022-09-28T15:16:44.761Z,99034.56
2022-09-28T15:20:05.698Z,99074.47
2022-09-28T15:22:52.281Z,99072.72
2022-09-28T15:25:50.909Z,99051.84
2022-09-28T15:28:35.654Z,99083.03
2022-09-28T15:31:43.424Z,99069.56
2022-09-28T15:35:02.266Z,99074.59
2022-09-28T15:37:50.889Z,99091.25
2022-09-28T15:43:43.361Z,99049.91
2022-09-28T15:46:29.370Z,99042.63
2022-09-28T15:49:16.149Z,99032.84
2022-09-28T15:52:26.621Z,99026.25
2022-09-28T15:58:35.051Z,99059.03
2022-09-28T16:01:27.738Z,99099.66
2022-09-28T16:07:25.669Z,99105.13
2022-09-28T16:10:30.461Z,99102.53
2022-09-28T16:13:31.808Z,99113.97
2022-09-28T16:16:24.769Z,99095.44
2022-09-28T16:19:11.821Z,99115.53
2022-09-28T16:25:04.094Z,99115.53
2022-09-28T16:28:25.029Z,99102.94
2022-09-28T16:31:43.998Z,99110.63
2022-09-28T16:34:37.918Z,99087.44
2022-09-28T16:40:24.458Z,99115.13
2022-09-28T16:43:12.735Z,99119.47
2022-09-28T16:46:46.410Z,99123.78
2022-09-28T16:49:19.856Z,99116.22
2022-09-28T16:58:34.784Z,99144.25
2022-09-28T17:01:22.674Z,99073.78
2022-09-28T17:04:01.423Z,99139.22
2022-09-28T17:06:28.206Z,99137.63
2022-09-28T17:08:56.613Z,99130.78
2022-09-28T17:11:24.957Z,99130.09
2022-09-28T17:13:52.324Z,99151.69
2022-09-28T17:19:18.707Z,99152.69
2022-09-28T17:21:45.880Z,99148.44
2022-09-28T17:24:12.589Z,99154.75
2022-09-28T17:26:41.700Z,99150.47
2022-09-28T17:29:14.571Z,99154.88
2022-09-28T17:31:42.701Z,99135.19
2022-09-28T17:34:10.761Z,99164.53
2022-09-28T17:36:37.926Z,99163.72
2022-09-28T17:39:06.505Z,99157.69
2022-09-28T17:41:34.227Z,99154.47
2022-09-28T17:44:03.093Z,99146.78
2022-09-28T17:46:40.846Z,99173.50
2022-09-28T17:49:11.694Z,99179.56
2022-09-28T17:51:41.198Z,99172.78
2022-09-28T17:54:08.632Z,99168.44
2022-09-28T17:56:36.479Z,99179.72
2022-09-28T17:59:10.380Z,99170.34
2022-09-28T18:01:39.539Z,99182.47
2022-09-28T18:04:08.775Z,99177.31
2022-09-28T18:06:37.299Z,99173.97
2022-09-28T18:09:05.348Z,99186.94
2022-09-28T18:11:33.353Z,99160.38
2022-09-28T18:13:59.962Z,99182.81
2022-09-28T18:16:28.615Z,99184.69
2022-09-28T18:18:55.347Z,99152.09
2022-09-28T18:21:21.935Z,99179.69
2022-09-28T18:23:48.619Z,99190.00
2022-09-28T18:26:16.792Z,99191.75
2022-09-28T18:28:43.367Z,99184.81
2022-09-28T18:31:12.038Z,99203.72
2022-09-28T18:33:39.421Z,99169.22
2022-09-28T18:36:07.344Z,99190.72
2022-09-28T18:38:37.816Z,99189.88
2022-09-28T18:41:15.895Z,99209.75
2022-09-28T18:43:50.213Z,99214.94
2022-09-28T18:46:18.379Z,99206.31
2022-09-28T18:48:47.651Z,99198.41
2022-09-28T18:51:14.977Z,99206.22
2022-09-28T18:53:41.794Z,99208.69
2022-09-28T18:56:10.750Z,99210.53
2022-09-28T18:58:39.616Z,99211.41
2022-09-28T19:04:10.448Z,99189.94
2022-09-28T19:06:40.668Z,99200.28
2022-09-28T19:09:08.952Z,99215.00
2022-09-28T19:11:35.751Z,99181.34
2022-09-28T19:14:03.685Z,99211.53
2022-09-28T19:16:33.680Z,99185.63
2022-09-28T19:19:02.115Z,99215.81
2022-09-28T19:21:29.501Z,99212.34
2022-09-28T19:23:56.227Z,99205.53
2022-09-28T19:26:25.486Z,99209.88
2022-09-28T19:28:52.291Z,99210.75
2022-09-28T19:31:19.656Z,99222.84
2022-09-28T19:33:46.843Z,99217.69
2022-09-28T19:36:19.811Z,99221.03
2022-09-28T19:38:46.525Z,99223.81
2022-09-28T19:41:43.096Z,99223.78
2022-09-28T19:44:24.510Z,99230.69
2022-09-28T19:46:58.693Z,99228.97
2022-09-28T19:49:27.504Z,99226.38
2022-09-28T19:52:14.212Z,99224.59
2022-09-28T19:54:43.928Z,99222.81
2022-09-28T19:57:12.272Z,99224.75
2022-09-28T19:59:39.391Z,99217.81
2022-09-28T20:02:08.380Z,99228.09
2022-09-28T20:04:35.337Z,99229.09
2022-09-28T20:07:02.509Z,99224.75
2022-09-28T20:09:29.315Z,99237.78
2022-09-28T20:11:56.002Z,99240.44
2022-09-28T20:14:24.661Z,99233.50
2022-09-28T20:16:55.051Z,99249.88
2022-09-28T20:19:23.279Z,99252.47
2022-09-28T20:21:50.544Z,99240.34
2022-09-28T20:24:17.707Z,99247.25
2022-09-28T20:26:45.862Z,99261.00
2022-09-28T20:29:13.182Z,99256.69
2022-09-28T20:31:39.986Z,99254.97
2022-09-28T20:34:07.058Z,99251.53
2022-09-28T20:36:34.297Z,99262.75
2022-09-28T20:39:02.087Z,99261.88
2022-09-28T20:41:35.592Z,99264.44
2022-09-28T20:44:06.002Z,99253.25
2022-09-28T20:46:34.743Z,99250.59
2022-09-28T20:49:01.874Z,99251.41
2022-09-28T20:51:28.709Z,99242.09
2022-09-28T20:53:56.778Z,99261.91
2022-09-28T20:56:24.521Z,99259.31
2022-09-28T20:58:52.133Z,99259.41
2022-09-28T21:01:27.324Z,99257.69
2022-09-28T21:04:01.764Z,99269.78
2022-09-28T21:06:30.588Z,99277.59
2022-09-28T21:08:57.535Z,99263.75
2022-09-28T21:11:26.108Z,99251.69
2022-09-28T21:13:58.557Z,99267.16
2022-09-28T21:16:27.190Z,99278.56
2022-09-28T21:18:53.807Z,99271.72
2022-09-28T21:21:21.682Z,99280.47
2022-09-28T21:23:51.584Z,99275.25
2022-09-28T21:26:26.797Z,99282.97
2022-09-28T21:28:56.346Z,99287.28
2022-09-28T21:31:28.852Z,99286.44
2022-09-28T21:33:57.118Z,99291.56
2022-09-28T21:36:23.772Z,99283.81
2022-09-28T21:38:50.428Z,99280.47
2022-09-28T21:41:17.191Z,99285.56
2022-09-28T21:43:45.331Z,99292.50
2022-09-28T21:46:12.044Z,99296.91
2022-09-28T21:48:38.662Z,99290.78
2022-09-28T21:51:08.073Z,99299.41
2022-09-28T21:53:36.664Z,99296.81
2022-09-28T21:56:05.302Z,99293.38
2022-09-28T21:58:33.994Z,99298.56
2022-09-28T22:01:03.947Z,99302.88
2022-09-28T22:03:31.851Z,99292.50
2022-09-28T22:05:58.558Z,99295.09
2022-09-28T22:08:26.034Z,99289.91
2022-09-28T22:11:00.902Z,99309.81
2022-09-28T22:13:29.217Z,99307.16
2022-09-28T22:15:57.881Z,99316.59
2022-09-28T22:18:26.064Z,99314.09
2022-09-28T22:21:08.974Z,99307.16
2022-09-28T22:23:37.516Z,99305.47
2022-09-28T22:26:11.151Z,99314.16
2022-09-28T22:28:39.928Z,99321.97
2022-09-28T22:31:06.718Z,99317.69
2022-09-28T22:33:34.141Z,99318.47
2022-09-28T22:36:00.923Z,99329.72
2022-09-28T22:38:31.072Z,99317.63
2022-09-28T22:40:58.328Z,99329.66
2022-09-28T22:43:26.655Z,99322.72
2022-09-28T22:46:06.765Z,99333.06
2022-09-28T22:48:34.797Z,99326.19
2022-09-28T22:51:02.573Z,99327.06
2022-09-28T22:53:29.615Z,99340.03
2022-09-28T22:55:58.084Z,99338.22
2022-09-28T22:58:25.253Z,99334.78
2022-09-28T23:00:51.987Z,99335.63
2022-09-28T23:03:18.600Z,99339.91
2022-09-28T23:05:53.981Z,99343.44
2022-09-28T23:08:20.747Z,99330.53
2022-09-28T23:10:47.479Z,99328.78
2022-09-28T23:13:14.500Z,99339.19
2022-09-28T23:15:41.118Z,99333.13
2022-09-28T23:18:08.592Z,99337.44
2022-09-28T23:20:36.569Z,99334.84
2022-09-28T23:23:03.177Z,99327.91
2022-09-28T23:25:29.811Z,99323.53
2022-09-28T23:27:56.385Z,99340.03
2022-09-28T23:30:23.794Z,99340.13
2022-09-28T23:32:53.338Z,99340.97
2022-09-28T23:35:20.161Z,99340.06
2022-09-28T23:37:50.679Z,99323.66
2022-09-28T23:40:18.245Z,99333.13
2022-09-28T23:42:44.929Z,99313.25
2022-09-28T23:45:12.087Z,99305.50
2022-09-28T23:47:38.825Z,99337.44
2022-09-28T23:50:06.619Z,99327.06
2022-09-28T23:52:33.714Z,99334.00
2022-09-28T23:55:00.280Z,99336.59
2022-09-28T23:57:26.921Z,99331.41
2022-09-28T23:59:53.544Z,99312.47
